sensor_id;sensor_type;location;lat;lon;timestamp;P1;durP1;ratioP1;P2;durP2;ratioP2
43996;SDS011;34318;45.818;15.964;2023-07-02T00:00:06;6.35;;;5.75;;
43996;SDS011;34318;45.818;15.964;2023-07-02T00:02:34;7.97;;;5.80;;
43996;SDS011;34318;45.818;15.964;2023-07-02T00:05:03;7.70;;;6.18;;
43996;SDS011;34318;45.818;15.964;2023-07-02T00:07:30;7.97;;;6.78;;
43996;SDS011;34318;45.818;15.964;2023-07-02T00:09:59;7.05;;;5.88;;
43996;SDS011;34318;45.818;15.964;2023-07-02T00:12:26;6.32;;;5.72;;
43996;SDS011;34318;45.818;15.964;2023-07-02T00:14:53;5.97;;;5.47;;
43996;SDS011;34318;45.818;15.964;2023-07-02T00:17:20;7.38;;;6.20;;
43996;SDS011;34318;45.818;15.964;2023-07-02T00:19:48;5.80;;;5.30;;
43996;SDS011;34318;45.818;15.964;2023-07-02T00:22:18;6.32;;;5.72;;
43996;SDS011;34318;45.818;15.964;2023-07-02T00:24:45;5.70;;;4.93;;
43996;SDS011;34318;45.818;15.964;2023-07-02T00:27:12;6.47;;;5.32;;
43996;SDS011;34318;45.818;15.964;2023-07-02T00:29:40;6.03;;;5.47;;
43996;SDS011;34318;45.818;15.964;2023-07-02T00:32:07;6.10;;;5.50;;
43996;SDS011;34318;45.818;15.964;2023-07-02T00:34:34;6.28;;;5.68;;
43996;SDS011;34318;45.818;15.964;2023-07-02T00:37:02;6.72;;;5.15;;
43996;SDS011;34318;45.818;15.964;2023-07-02T00:39:29;5.72;;;5.22;;
43996;SDS011;34318;45.818;15.964;2023-07-02T00:42:00;5.72;;;5.20;;
43996;SDS011;34318;45.818;15.964;2023-07-02T00:44:28;5.82;;;5.32;;
43996;SDS011;34318;45.818;15.964;2023-07-02T00:46:55;5.57;;;5.07;;
43996;SDS011;34318;45.818;15.964;2023-07-02T00:49:23;6.55;;;4.88;;
43996;SDS011;34318;45.818;15.964;2023-07-02T00:51:50;5.95;;;5.40;;
43996;SDS011;34318;45.818;15.964;2023-07-02T00:54:18;6.57;;;5.22;;
43996;SDS011;34318;45.818;15.964;2023-07-02T00:56:45;6.03;;;5.53;;
43996;SDS011;34318;45.818;15.964;2023-07-02T00:59:12;5.80;;;5.30;;
43996;SDS011;34318;45.818;15.964;2023-07-02T01:01:39;6.28;;;5.78;;
43996;SDS011;34318;45.818;15.964;2023-07-02T01:04:07;5.43;;;5.03;;
43996;SDS011;34318;45.818;15.964;2023-07-02T01:06:35;5.60;;;5.10;;
43996;SDS011;34318;45.818;15.964;2023-07-02T01:09:08;6.32;;;5.72;;
43996;SDS011;34318;45.818;15.964;2023-07-02T01:11:49;5.90;;;5.40;;
43996;SDS011;34318;45.818;15.964;2023-07-02T01:16:51;7.90;;;5.80;;
43996;SDS011;34318;45.818;15.964;2023-07-02T01:19:21;5.97;;;5.15;;
43996;SDS011;34318;45.818;15.964;2023-07-02T01:21:49;6.30;;;4.97;;
43996;SDS011;34318;45.818;15.964;2023-07-02T01:24:17;6.30;;;5.45;;
43996;SDS011;34318;45.818;15.964;2023-07-02T01:26:44;6.93;;;5.28;;
43996;SDS011;34318;45.818;15.964;2023-07-02T01:29:18;5.90;;;5.40;;
43996;SDS011;34318;45.818;15.964;2023-07-02T01:31:46;6.57;;;5.97;;
43996;SDS011;34318;45.818;15.964;2023-07-02T01:34:14;6.05;;;5.45;;
43996;SDS011;34318;45.818;15.964;2023-07-02T01:36:41;6.97;;;5.75;;
43996;SDS011;34318;45.818;15.964;2023-07-02T01:39:08;6.60;;;6.00;;
43996;SDS011;34318;45.818;15.964;2023-07-02T01:41:44;6.88;;;6.25;;
43996;SDS011;34318;45.818;15.964;2023-07-02T01:44:11;6.38;;;5.78;;
43996;SDS011;34318;45.818;15.964;2023-07-02T01:46:39;6.35;;;5.72;;
43996;SDS011;34318;45.818;15.964;2023-07-02T01:49:06;9.45;;;6.50;;
43996;SDS011;34318;45.818;15.964;2023-07-02T01:51:33;8.15;;;6.07;;
43996;SDS011;34318;45.818;15.964;2023-07-02T01:54:01;7.32;;;6.63;;
43996;SDS011;34318;45.818;15.964;2023-07-02T01:56:28;7.47;;;6.50;;
43996;SDS011;34318;45.818;15.964;2023-07-02T01:58:55;7.80;;;7.00;;
43996;SDS011;34318;45.818;15.964;2023-07-02T02:01:22;7.22;;;6.55;;
43996;SDS011;34318;45.818;15.964;2023-07-02T02:03:50;6.90;;;6.05;;
43996;SDS011;34318;45.818;15.964;2023-07-02T02:06:17;7.63;;;6.40;;
43996;SDS011;34318;45.818;15.964;2023-07-02T02:08:45;6.80;;;6.18;;
43996;SDS011;34318;45.818;15.964;2023-07-02T02:11:12;7.93;;;6.22;;
43996;SDS011;34318;45.818;15.964;2023-07-02T02:13:39;7.55;;;6.00;;
43996;SDS011;34318;45.818;15.964;2023-07-02T02:16:07;6.28;;;5.68;;
43996;SDS011;34318;45.818;15.964;2023-07-02T02:18:34;7.00;;;6.15;;
43996;SDS011;34318;45.818;15.964;2023-07-02T02:21:01;6.75;;;6.03;;
43996;SDS011;34318;45.818;15.964;2023-07-02T02:23:28;6.97;;;6.38;;
43996;SDS011;34318;45.818;15.964;2023-07-02T02:25:56;6.88;;;6.18;;
43996;SDS011;34318;45.818;15.964;2023-07-02T02:28:23;6.50;;;5.90;;
43996;SDS011;34318;45.818;15.964;2023-07-02T02:30:50;6.68;;;6.10;;
43996;SDS011;34318;45.818;15.964;2023-07-02T02:33:17;6.75;;;6.15;;
43996;SDS011;34318;45.818;15.964;2023-07-02T02:35:45;6.85;;;6.25;;
43996;SDS011;34318;45.818;15.964;2023-07-02T02:38:12;6.70;;;6.10;;
43996;SDS011;34318;45.818;15.964;2023-07-02T02:40:40;6.47;;;5.88;;
43996;SDS011;34318;45.818;15.964;2023-07-02T02:43:08;6.82;;;6.13;;
43996;SDS011;34318;45.818;15.964;2023-07-02T02:45:35;6.20;;;5.70;;
43996;SDS011;34318;45.818;15.964;2023-07-02T02:48:02;7.50;;;6.07;;
43996;SDS011;34318;45.818;15.964;2023-07-02T02:50:29;7.45;;;6.28;;
43996;SDS011;34318;45.818;15.964;2023-07-02T02:52:57;7.28;;;6.20;;
43996;SDS011;34318;45.818;15.964;2023-07-02T02:55:24;6.90;;;5.80;;
43996;SDS011;34318;45.818;15.964;2023-07-02T02:57:52;9.70;;;5.82;;
43996;SDS011;34318;45.818;15.964;2023-07-02T03:00:19;6.28;;;5.68;;
43996;SDS011;34318;45.818;15.964;2023-07-02T03:02:47;6.43;;;5.82;;
43996;SDS011;34318;45.818;15.964;2023-07-02T03:05:14;6.53;;;5.93;;
43996;SDS011;34318;45.818;15.964;2023-07-02T03:07:42;6.70;;;6.03;;
43996;SDS011;34318;45.818;15.964;2023-07-02T03:10:09;6.45;;;5.85;;
43996;SDS011;34318;45.818;15.964;2023-07-02T03:12:36;6.85;;;5.95;;
43996;SDS011;34318;45.818;15.964;2023-07-02T03:15:04;7.22;;;6.03;;
43996;SDS011;34318;45.818;15.964;2023-07-02T03:17:31;7.00;;;5.97;;
43996;SDS011;34318;45.818;15.964;2023-07-02T03:19:59;6.35;;;5.75;;
43996;SDS011;34318;45.818;15.964;2023-07-02T03:22:27;6.97;;;5.60;;
43996;SDS011;34318;45.818;15.964;2023-07-02T03:24:55;9.05;;;6.65;;
43996;SDS011;34318;45.818;15.964;2023-07-02T03:27:22;5.93;;;5.43;;
43996;SDS011;34318;45.818;15.964;2023-07-02T03:29:49;6.85;;;6.25;;
43996;SDS011;34318;45.818;15.964;2023-07-02T03:32:17;6.72;;;6.05;;
43996;SDS011;34318;45.818;15.964;2023-07-02T03:34:44;6.50;;;5.80;;
43996;SDS011;34318;45.818;15.964;2023-07-02T03:37:11;7.13;;;6.43;;
43996;SDS011;34318;45.818;15.964;2023-07-02T03:39:38;8.13;;;6.57;;
43996;SDS011;34318;45.818;15.964;2023-07-02T03:42:05;7.05;;;6.35;;
43996;SDS011;34318;45.818;15.964;2023-07-02T03:44:33;6.43;;;5.35;;
43996;SDS011;34318;45.818;15.964;2023-07-02T03:47:00;5.97;;;5.47;;
43996;SDS011;34318;45.818;15.964;2023-07-02T03:49:27;6.72;;;6.22;;
43996;SDS011;34318;45.818;15.964;2023-07-02T03:51:55;7.05;;;6.20;;
43996;SDS011;34318;45.818;15.964;2023-07-02T03:54:22;7.00;;;6.30;;
43996;SDS011;34318;45.818;15.964;2023-07-02T03:56:49;8.10;;;6.03;;
43996;SDS011;34318;45.818;15.964;2023-07-02T03:59:17;6.05;;;5.55;;
43996;SDS011;34318;45.818;15.964;2023-07-02T04:01:44;6.10;;;5.47;;
43996;SDS011;34318;45.818;15.964;2023-07-02T04:04:11;6.68;;;5.57;;
43996;SDS011;34318;45.818;15.964;2023-07-02T04:06:38;7.45;;;6.43;;
43996;SDS011;34318;45.818;15.964;2023-07-02T04:09:06;10.77;;;6.00;;
43996;SDS011;34318;45.818;15.964;2023-07-02T04:11:33;6.78;;;6.18;;
43996;SDS011;34318;45.818;15.964;2023-07-02T04:14:00;6.82;;;6.13;;
43996;SDS011;34318;45.818;15.964;2023-07-02T04:16:28;5.90;;;5.30;;
43996;SDS011;34318;45.818;15.964;2023-07-02T04:18:55;7.38;;;6.35;;
43996;SDS011;34318;45.818;15.964;2023-07-02T04:21:23;9.13;;;5.82;;
43996;SDS011;34318;45.818;15.964;2023-07-02T04:23:50;5.70;;;5.20;;
43996;SDS011;34318;45.818;15.964;2023-07-02T04:26:17;5.63;;;5.13;;
43996;SDS011;34318;45.818;15.964;2023-07-02T04:29:05;6.40;;;5.72;;
43996;SDS011;34318;45.818;15.964;2023-07-02T04:31:32;6.45;;;5.85;;
43996;SDS011;34318;45.818;15.964;2023-07-02T04:33:59;8.48;;;5.47;;
43996;SDS011;34318;45.818;15.964;2023-07-02T04:36:26;5.68;;;5.13;;
43996;SDS011;34318;45.818;15.964;2023-07-02T04:38:54;6.18;;;5.57;;
43996;SDS011;34318;45.818;15.964;2023-07-02T04:41:22;6.18;;;5.57;;
43996;SDS011;34318;45.818;15.964;2023-07-02T04:43:49;7.88;;;5.28;;
43996;SDS011;34318;45.818;15.964;2023-07-02T04:46:16;8.57;;;6.15;;
43996;SDS011;34318;45.818;15.964;2023-07-02T04:48:44;5.80;;;5.30;;
43996;SDS011;34318;45.818;15.964;2023-07-02T04:51:12;5.78;;;5.10;;
43996;SDS011;34318;45.818;15.964;2023-07-02T04:53:39;6.15;;;5.55;;
43996;SDS011;34318;45.818;15.964;2023-07-02T04:56:06;6.93;;;5.55;;
43996;SDS011;34318;45.818;15.964;2023-07-02T04:58:34;5.78;;;5.28;;
43996;SDS011;34318;45.818;15.964;2023-07-02T05:01:04;7.68;;;5.88;;
43996;SDS011;34318;45.818;15.964;2023-07-02T05:03:32;6.28;;;5.68;;
43996;SDS011;34318;45.818;15.964;2023-07-02T05:05:59;5.78;;;5.28;;
43996;SDS011;34318;45.818;15.964;2023-07-02T05:08:26;5.82;;;5.30;;
43996;SDS011;34318;45.818;15.964;2023-07-02T05:10:53;6.13;;;5.57;;
43996;SDS011;34318;45.818;15.964;2023-07-02T05:13:20;5.93;;;5.32;;
43996;SDS011;34318;45.818;15.964;2023-07-02T05:15:48;7.55;;;5.45;;
43996;SDS011;34318;45.818;15.964;2023-07-02T05:18:15;6.50;;;5.82;;
43996;SDS011;34318;45.818;15.964;2023-07-02T05:20:42;6.20;;;5.60;;
43996;SDS011;34318;45.818;15.964;2023-07-02T05:23:09;6.35;;;5.75;;
43996;SDS011;34318;45.818;15.964;2023-07-02T05:25:37;5.43;;;4.93;;
43996;SDS011;34318;45.818;15.964;2023-07-02T05:28:04;5.65;;;5.15;;
43996;SDS011;34318;45.818;15.964;2023-07-02T05:30:31;5.80;;;5.25;;
43996;SDS011;34318;45.818;15.964;2023-07-02T05:32:58;6.95;;;5.60;;
43996;SDS011;34318;45.818;15.964;2023-07-02T05:35:26;5.72;;;5.20;;
43996;SDS011;34318;45.818;15.964;2023-07-02T05:37:54;5.35;;;4.85;;
43996;SDS011;34318;45.818;15.964;2023-07-02T05:40:21;5.47;;;5.03;;
43996;SDS011;34318;45.818;15.964;2023-07-02T05:42:48;5.10;;;4.60;;
43996;SDS011;34318;45.818;15.964;2023-07-02T05:45:16;5.70;;;5.20;;
43996;SDS011;34318;45.818;15.964;2023-07-02T05:47:43;5.85;;;5.35;;
43996;SDS011;34318;45.818;15.964;2023-07-02T05:50:10;5.70;;;5.03;;
43996;SDS011;34318;45.818;15.964;2023-07-02T05:52:37;6.85;;;6.15;;
43996;SDS011;34318;45.818;15.964;2023-07-02T05:55:05;5.35;;;4.88;;
43996;SDS011;34318;45.818;15.964;2023-07-02T05:57:32;5.22;;;4.82;;
43996;SDS011;34318;45.818;15.964;2023-07-02T06:00:00;5.57;;;5.07;;
43996;SDS011;34318;45.818;15.964;2023-07-02T06:02:27;5.68;;;5.07;;
43996;SDS011;34318;45.818;15.964;2023-07-02T06:04:55;5.60;;;5.10;;
43996;SDS011;34318;45.818;15.964;2023-07-02T06:07:26;6.18;;;5.57;;
43996;SDS011;34318;45.818;15.964;2023-07-02T06:09:53;5.50;;;5.07;;
43996;SDS011;34318;45.818;15.964;2023-07-02T06:12:21;5.28;;;4.78;;
43996;SDS011;34318;45.818;15.964;2023-07-02T06:14:49;5.13;;;4.63;;
43996;SDS011;34318;45.818;15.964;2023-07-02T06:17:16;5.47;;;4.80;;
43996;SDS011;34318;45.818;15.964;2023-07-02T06:19:44;4.88;;;4.47;;
43996;SDS011;34318;45.818;15.964;2023-07-02T06:22:11;4.97;;;4.57;;
43996;SDS011;34318;45.818;15.964;2023-07-02T06:24:38;4.97;;;4.53;;
43996;SDS011;34318;45.818;15.964;2023-07-02T06:27:05;5.80;;;5.22;;
43996;SDS011;34318;45.818;15.964;2023-07-02T06:29:33;5.50;;;5.00;;
43996;SDS011;34318;45.818;15.964;2023-07-02T06:32:00;5.47;;;4.97;;
43996;SDS011;34318;45.818;15.964;2023-07-02T06:34:27;5.15;;;4.75;;
43996;SDS011;34318;45.818;15.964;2023-07-02T06:36:55;4.93;;;4.50;;
43996;SDS011;34318;45.818;15.964;2023-07-02T06:39:22;5.00;;;4.50;;
43996;SDS011;34318;45.818;15.964;2023-07-02T06:41:49;5.82;;;4.97;;
43996;SDS011;34318;45.818;15.964;2023-07-02T06:44:16;5.95;;;4.47;;
43996;SDS011;34318;45.818;15.964;2023-07-02T06:46:45;5.68;;;4.70;;
43996;SDS011;34318;45.818;15.964;2023-07-02T06:49:13;5.03;;;4.53;;
43996;SDS011;34318;45.818;15.964;2023-07-02T06:51:40;5.13;;;4.18;;
43996;SDS011;34318;45.818;15.964;2023-07-02T06:56:39;5.35;;;4.82;;
43996;SDS011;34318;45.818;15.964;2023-07-02T06:59:07;5.30;;;4.90;;
43996;SDS011;34318;45.818;15.964;2023-07-02T07:01:34;5.25;;;4.85;;
43996;SDS011;34318;45.818;15.964;2023-07-02T07:04:03;4.72;;;4.32;;
43996;SDS011;34318;45.818;15.964;2023-07-02T07:06:30;10.02;;;5.38;;
43996;SDS011;34318;45.818;15.964;2023-07-02T07:08:57;6.32;;;5.30;;
43996;SDS011;34318;45.818;15.964;2023-07-02T07:11:24;6.60;;;6.00;;
43996;SDS011;34318;45.818;15.964;2023-07-02T07:13:52;6.38;;;5.70;;
43996;SDS011;34318;45.818;15.964;2023-07-02T07:16:19;6.85;;;6.25;;
43996;SDS011;34318;45.818;15.964;2023-07-02T07:18:46;6.32;;;5.75;;
43996;SDS011;34318;45.818;15.964;2023-07-02T07:21:14;6.28;;;5.78;;
43996;SDS011;34318;45.818;15.964;2023-07-02T07:23:41;5.20;;;4.80;;
43996;SDS011;34318;45.818;15.964;2023-07-02T07:26:08;6.00;;;5.47;;
43996;SDS011;34318;45.818;15.964;2023-07-02T07:28:35;5.55;;;5.05;;
43996;SDS011;34318;45.818;15.964;2023-07-02T07:31:03;5.22;;;4.82;;
43996;SDS011;34318;45.818;15.964;2023-07-02T07:33:30;6.30;;;5.70;;
43996;SDS011;34318;45.818;15.964;2023-07-02T07:35:57;6.40;;;5.80;;
43996;SDS011;34318;45.818;15.964;2023-07-02T07:38:24;7.72;;;6.97;;
43996;SDS011;34318;45.818;15.964;2023-07-02T07:40:52;11.98;;;8.45;;
43996;SDS011;34318;45.818;15.964;2023-07-02T07:43:19;11.10;;;8.70;;
43996;SDS011;34318;45.818;15.964;2023-07-02T07:45:46;8.25;;;7.50;;
43996;SDS011;34318;45.818;15.964;2023-07-02T07:48:14;7.68;;;6.97;;
43996;SDS011;34318;45.818;15.964;2023-07-02T07:50:41;7.22;;;6.53;;
43996;SDS011;34318;45.818;15.964;2023-07-02T07:53:09;11.48;;;7.70;;
43996;SDS011;34318;45.818;15.964;2023-07-02T07:55:36;9.13;;;8.20;;
43996;SDS011;34318;45.818;15.964;2023-07-02T07:58:03;8.38;;;7.20;;
43996;SDS011;34318;45.818;15.964;2023-07-02T08:00:30;8.48;;;7.68;;
43996;SDS011;34318;45.818;15.964;2023-07-02T08:02:58;8.05;;;7.28;;
43996;SDS011;34318;45.818;15.964;2023-07-02T08:05:27;7.55;;;6.85;;
43996;SDS011;34318;45.818;15.964;2023-07-02T08:07:54;7.78;;;7.07;;
43996;SDS011;34318;45.818;15.964;2023-07-02T08:10:21;8.20;;;7.50;;
43996;SDS011;34318;45.818;15.964;2023-07-02T08:12:49;7.68;;;6.90;;
43996;SDS011;34318;45.818;15.964;2023-07-02T08:15:18;7.53;;;6.82;;
43996;SDS011;34318;45.818;15.964;2023-07-02T08:17:45;8.25;;;7.45;;
43996;SDS011;34318;45.818;15.964;2023-07-02T08:20:13;7.57;;;6.88;;
43996;SDS011;34318;45.818;15.964;2023-07-02T08:22:40;7.57;;;6.88;;
43996;SDS011;34318;45.818;15.964;2023-07-02T08:25:07;8.52;;;6.88;;
43996;SDS011;34318;45.818;15.964;2023-07-02T08:27:35;8.27;;;6.65;;
43996;SDS011;34318;45.818;15.964;2023-07-02T08:30:02;7.18;;;6.55;;
43996;SDS011;34318;45.818;15.964;2023-07-02T08:32:29;6.75;;;6.15;;
43996;SDS011;34318;45.818;15.964;2023-07-02T08:34:58;7.47;;;6.68;;
43996;SDS011;34318;45.818;15.964;2023-07-02T08:37:26;7.03;;;6.32;;
43996;SDS011;34318;45.818;15.964;2023-07-02T08:39:53;7.07;;;6.38;;
43996;SDS011;34318;45.818;15.964;2023-07-02T08:42:20;7.05;;;6.38;;
43996;SDS011;34318;45.818;15.964;2023-07-02T08:44:47;7.10;;;6.50;;
43996;SDS011;34318;45.818;15.964;2023-07-02T08:47:15;7.13;;;6.40;;
43996;SDS011;34318;45.818;15.964;2023-07-02T08:49:43;6.95;;;6.10;;
43996;SDS011;34318;45.818;15.964;2023-07-02T08:52:10;7.30;;;6.60;;
43996;SDS011;34318;45.818;15.964;2023-07-02T08:54:37;6.88;;;6.25;;
43996;SDS011;34318;45.818;15.964;2023-07-02T08:57:04;7.63;;;6.38;;
43996;SDS011;34318;45.818;15.964;2023-07-02T08:59:32;6.00;;;5.50;;
43996;SDS011;34318;45.818;15.964;2023-07-02T09:01:59;6.82;;;6.15;;
43996;SDS011;34318;45.818;15.964;2023-07-02T09:04:26;6.40;;;5.80;;
43996;SDS011;34318;45.818;15.964;2023-07-02T09:07:07;7.20;;;6.50;;
43996;SDS011;34318;45.818;15.964;2023-07-02T09:09:44;7.13;;;6.43;;
43996;SDS011;34318;45.818;15.964;2023-07-02T09:12:25;6.90;;;6.30;;
43996;SDS011;34318;45.818;15.964;2023-07-02T09:15:03;7.75;;;6.90;;
43996;SDS011;34318;45.818;15.964;2023-07-02T09:17:33;7.65;;;6.95;;
43996;SDS011;34318;45.818;15.964;2023-07-02T09:20:02;9.05;;;8.25;;
43996;SDS011;34318;45.818;15.964;2023-07-02T09:22:31;8.98;;;8.07;;
43996;SDS011;34318;45.818;15.964;2023-07-02T09:24:58;7.78;;;7.07;;
43996;SDS011;34318;45.818;15.964;2023-07-02T09:27:35;8.15;;;7.43;;
43996;SDS011;34318;45.818;15.964;2023-07-02T09:30:13;8.63;;;7.93;;
43996;SDS011;34318;45.818;15.964;2023-07-02T09:32:42;8.85;;;7.60;;
43996;SDS011;34318;45.818;15.964;2023-07-02T09:35:11;8.18;;;7.38;;
43996;SDS011;34318;45.818;15.964;2023-07-02T09:37:38;8.88;;;8.07;;
43996;SDS011;34318;45.818;15.964;2023-07-02T09:40:08;11.00;;;8.90;;
43996;SDS011;34318;45.818;15.964;2023-07-02T09:42:35;9.25;;;8.35;;
43996;SDS011;34318;45.818;15.964;2023-07-02T09:45:07;9.38;;;8.57;;
43996;SDS011;34318;45.818;15.964;2023-07-02T09:47:38;9.60;;;8.73;;
43996;SDS011;34318;45.818;15.964;2023-07-02T09:50:07;9.35;;;8.27;;
43996;SDS011;34318;45.818;15.964;2023-07-02T09:52:35;10.50;;;9.35;;
43996;SDS011;34318;45.818;15.964;2023-07-02T09:55:03;10.57;;;9.50;;
43996;SDS011;34318;45.818;15.964;2023-07-02T09:57:30;11.68;;;9.57;;
43996;SDS011;34318;45.818;15.964;2023-07-02T09:59:59;13.75;;;12.35;;
43996;SDS011;34318;45.818;15.964;2023-07-02T10:02:26;18.50;;;16.75;;
43996;SDS011;34318;45.818;15.964;2023-07-02T10:04:53;17.15;;;15.60;;
43996;SDS011;34318;45.818;15.964;2023-07-02T10:07:26;15.45;;;13.82;;
43996;SDS011;34318;45.818;15.964;2023-07-02T10:09:53;16.30;;;14.43;;
43996;SDS011;34318;45.818;15.964;2023-07-02T10:12:21;16.42;;;14.52;;
43996;SDS011;34318;45.818;15.964;2023-07-02T10:14:49;14.45;;;13.05;;
43996;SDS011;34318;45.818;15.964;2023-07-02T10:19:59;13.75;;;12.45;;
43996;SDS011;34318;45.818;15.964;2023-07-02T10:22:26;17.52;;;16.00;;
43996;SDS011;34318;45.818;15.964;2023-07-02T10:24:57;23.10;;;20.73;;
43996;SDS011;34318;45.818;15.964;2023-07-02T10:27:37;20.85;;;19.05;;
43996;SDS011;34318;45.818;15.964;2023-07-02T10:30:05;20.23;;;18.20;;
43996;SDS011;34318;45.818;15.964;2023-07-02T10:32:33;18.33;;;16.52;;
43996;SDS011;34318;45.818;15.964;2023-07-02T10:35:02;18.60;;;16.88;;
43996;SDS011;34318;45.818;15.964;2023-07-02T10:37:39;16.92;;;15.35;;
43996;SDS011;34318;45.818;15.964;2023-07-02T10:40:06;16.95;;;15.30;;
43996;SDS011;34318;45.818;15.964;2023-07-02T10:42:48;16.27;;;14.48;;
43996;SDS011;34318;45.818;15.964;2023-07-02T10:45:15;16.38;;;14.77;;
43996;SDS011;34318;45.818;15.964;2023-07-02T10:47:43;15.85;;;14.35;;
43996;SDS011;34318;45.818;15.964;2023-07-02T10:50:17;14.98;;;13.63;;
43996;SDS011;34318;45.818;15.964;2023-07-02T10:52:45;15.32;;;14.02;;
43996;SDS011;34318;45.818;15.964;2023-07-02T10:55:19;15.98;;;14.52;;
43996;SDS011;34318;45.818;15.964;2023-07-02T10:57:47;20.80;;;14.02;;
43996;SDS011;34318;45.818;15.964;2023-07-02T11:00:14;13.73;;;12.38;;
43996;SDS011;34318;45.818;15.964;2023-07-02T11:02:42;14.48;;;13.10;;
43996;SDS011;34318;45.818;15.964;2023-07-02T11:05:09;15.25;;;13.82;;
43996;SDS011;34318;45.818;15.964;2023-07-02T11:07:39;14.15;;;12.85;;
43996;SDS011;34318;45.818;15.964;2023-07-02T11:10:07;13.82;;;12.63;;
43996;SDS011;34318;45.818;15.964;2023-07-02T11:12:35;14.50;;;13.10;;
43996;SDS011;34318;45.818;15.964;2023-07-02T11:15:12;13.50;;;12.20;;
43996;SDS011;34318;45.818;15.964;2023-07-02T11:17:40;14.50;;;13.00;;
43996;SDS011;34318;45.818;15.964;2023-07-02T11:20:09;13.18;;;11.93;;
43996;SDS011;34318;45.818;15.964;2023-07-02T11:22:37;12.23;;;11.13;;
43996;SDS011;34318;45.818;15.964;2023-07-02T11:27:37;12.60;;;11.60;;
43996;SDS011;34318;45.818;15.964;2023-07-02T11:30:05;12.60;;;11.40;;
43996;SDS011;34318;45.818;15.964;2023-07-02T11:32:48;12.07;;;11.02;;
43996;SDS011;34318;45.818;15.964;2023-07-02T11:35:16;12.98;;;11.88;;
43996;SDS011;34318;45.818;15.964;2023-07-02T11:37:43;12.98;;;11.77;;
43996;SDS011;34318;45.818;15.964;2023-07-02T11:40:12;12.63;;;11.52;;
43996;SDS011;34318;45.818;15.964;2023-07-02T11:42:40;11.90;;;10.82;;
43996;SDS011;34318;45.818;15.964;2023-07-02T11:45:07;12.55;;;11.27;;
43996;SDS011;34318;45.818;15.964;2023-07-02T11:47:35;12.25;;;11.15;;
43996;SDS011;34318;45.818;15.964;2023-07-02T11:50:02;12.13;;;10.95;;
43996;SDS011;34318;45.818;15.964;2023-07-02T11:52:46;11.07;;;10.18;;
43996;SDS011;34318;45.818;15.964;2023-07-02T11:55:13;12.77;;;11.23;;
43996;SDS011;34318;45.818;15.964;2023-07-02T11:57:41;12.52;;;11.32;;
43996;SDS011;34318;45.818;15.964;2023-07-02T12:00:09;12.40;;;11.30;;
43996;SDS011;34318;45.818;15.964;2023-07-02T12:02:36;12.35;;;10.30;;
43996;SDS011;34318;45.818;15.964;2023-07-02T12:05:03;11.73;;;10.73;;
43996;SDS011;34318;45.818;15.964;2023-07-02T12:07:34;11.80;;;10.70;;
43996;SDS011;34318;45.818;15.964;2023-07-02T12:10:02;10.52;;;9.52;;
43996;SDS011;34318;45.818;15.964;2023-07-02T12:12:29;10.60;;;9.65;;
43996;SDS011;34318;45.818;15.964;2023-07-02T12:14:56;10.88;;;9.98;;
43996;SDS011;34318;45.818;15.964;2023-07-02T12:17:24;11.02;;;10.02;;
43996;SDS011;34318;45.818;15.964;2023-07-02T12:19:51;10.77;;;9.75;;
43996;SDS011;34318;45.818;15.964;2023-07-02T12:22:18;11.38;;;10.27;;
43996;SDS011;34318;45.818;15.964;2023-07-02T12:24:48;10.65;;;9.65;;
43996;SDS011;34318;45.818;15.964;2023-07-02T12:27:16;10.55;;;9.65;;
43996;SDS011;34318;45.818;15.964;2023-07-02T12:29:43;10.43;;;9.52;;
43996;SDS011;34318;45.818;15.964;2023-07-02T12:32:10;10.43;;;9.52;;
43996;SDS011;34318;45.818;15.964;2023-07-02T12:34:38;10.43;;;9.52;;
43996;SDS011;34318;45.818;15.964;2023-07-02T12:37:05;10.38;;;9.48;;
43996;SDS011;34318;45.818;15.964;2023-07-02T12:39:33;10.32;;;9.43;;
43996;SDS011;34318;45.818;15.964;2023-07-02T12:42:00;10.23;;;9.32;;
43996;SDS011;34318;45.818;15.964;2023-07-02T12:44:27;9.93;;;9.13;;
43996;SDS011;34318;45.818;15.964;2023-07-02T12:46:54;10.02;;;9.15;;
43996;SDS011;34318;45.818;15.964;2023-07-02T12:49:22;9.73;;;8.90;;
43996;SDS011;34318;45.818;15.964;2023-07-02T12:51:49;9.98;;;9.18;;
43996;SDS011;34318;45.818;15.964;2023-07-02T12:54:16;10.38;;;9.48;;
43996;SDS011;34318;45.818;15.964;2023-07-02T12:56:43;8.77;;;8.02;;
43996;SDS011;34318;45.818;15.964;2023-07-02T12:59:11;10.70;;;9.70;;
43996;SDS011;34318;45.818;15.964;2023-07-02T13:01:38;10.10;;;9.23;;
43996;SDS011;34318;45.818;15.964;2023-07-02T13:04:05;10.32;;;9.43;;
43996;SDS011;34318;45.818;15.964;2023-07-02T13:06:32;9.82;;;8.88;;
43996;SDS011;34318;45.818;15.964;2023-07-02T13:09:09;9.82;;;8.93;;
43996;SDS011;34318;45.818;15.964;2023-07-02T13:11:36;10.60;;;9.52;;
43996;SDS011;34318;45.818;15.964;2023-07-02T13:14:04;8.98;;;8.18;;
43996;SDS011;34318;45.818;15.964;2023-07-02T13:16:31;9.23;;;8.43;;
43996;SDS011;34318;45.818;15.964;2023-07-02T13:18:59;9.30;;;8.50;;
43996;SDS011;34318;45.818;15.964;2023-07-02T13:21:30;10.45;;;9.55;;
43996;SDS011;34318;45.818;15.964;2023-07-02T13:23:57;9.32;;;8.52;;
43996;SDS011;34318;45.818;15.964;2023-07-02T13:26:24;8.77;;;8.05;;
43996;SDS011;34318;45.818;15.964;2023-07-02T13:28:51;8.35;;;7.65;;
43996;SDS011;34318;45.818;15.964;2023-07-02T13:31:19;8.40;;;7.60;;
43996;SDS011;34318;45.818;15.964;2023-07-02T13:33:46;8.70;;;7.90;;
43996;SDS011;34318;45.818;15.964;2023-07-02T13:36:13;8.25;;;7.55;;
43996;SDS011;34318;45.818;15.964;2023-07-02T13:38:40;8.45;;;7.75;;
43996;SDS011;34318;45.818;15.964;2023-07-02T13:41:08;8.48;;;7.70;;
43996;SDS011;34318;45.818;15.964;2023-07-02T13:43:35;9.38;;;8.57;;
43996;SDS011;34318;45.818;15.964;2023-07-02T13:46:02;9.32;;;8.52;;
43996;SDS011;34318;45.818;15.964;2023-07-02T13:48:30;7.80;;;7.10;;
43996;SDS011;34318;45.818;15.964;2023-07-02T13:50:57;8.20;;;7.50;;
43996;SDS011;34318;45.818;15.964;2023-07-02T13:53:24;9.10;;;8.30;;
43996;SDS011;34318;45.818;15.964;2023-07-02T13:55:52;9.50;;;8.70;;
43996;SDS011;34318;45.818;15.964;2023-07-02T13:58:19;8.60;;;7.85;;
43996;SDS011;34318;45.818;15.964;2023-07-02T14:00:55;8.40;;;7.70;;
43996;SDS011;34318;45.818;15.964;2023-07-02T14:03:23;8.55;;;7.85;;
43996;SDS011;34318;45.818;15.964;2023-07-02T14:05:50;8.23;;;7.53;;
43996;SDS011;34318;45.818;15.964;2023-07-02T14:08:18;8.35;;;7.65;;
43996;SDS011;34318;45.818;15.964;2023-07-02T14:10:45;8.07;;;7.38;;
43996;SDS011;34318;45.818;15.964;2023-07-02T14:13:13;8.65;;;7.85;;
43996;SDS011;34318;45.818;15.964;2023-07-02T14:15:40;9.35;;;8.55;;
43996;SDS011;34318;45.818;15.964;2023-07-02T14:18:07;8.52;;;7.72;;
43996;SDS011;34318;45.818;15.964;2023-07-02T14:20:34;8.43;;;7.63;;
43996;SDS011;34318;45.818;15.964;2023-07-02T14:23:02;7.95;;;7.25;;
43996;SDS011;34318;45.818;15.964;2023-07-02T14:25:29;7.80;;;7.10;;
43996;SDS011;34318;45.818;15.964;2023-07-02T14:28:06;7.88;;;7.18;;
43996;SDS011;34318;45.818;15.964;2023-07-02T14:30:33;8.30;;;7.60;;
43996;SDS011;34318;45.818;15.964;2023-07-02T14:33:01;8.07;;;7.35;;
43996;SDS011;34318;45.818;15.964;2023-07-02T14:35:30;8.60;;;7.82;;
43996;SDS011;34318;45.818;15.964;2023-07-02T14:37:57;8.00;;;7.30;;
43996;SDS011;34318;45.818;15.964;2023-07-02T14:40:25;7.50;;;6.90;;
43996;SDS011;34318;45.818;15.964;2023-07-02T14:42:52;8.05;;;7.35;;
43996;SDS011;34318;45.818;15.964;2023-07-02T14:45:19;8.07;;;7.38;;